Latest Weather Observations for Yanakie

IDV60801

Issued at 8:32 pm EST Tuesday 25 July 2017 (issued every 30 minutes, with the page automatically refreshed every 10 minutes)

About weather observations | Map of weather stations | Latest weather observations for VIC | Other Formats
Station Details ID: 085301 Name: YANAKIE Lat: -38.81 Lon: 146.19 Height: 13.3 m
Data from the previous 72 hours. | See also: Recent months at Yanakie
Date/Time
EST
Temp
°C
App
Temp
°C
Dew
Point
°C
Rel
Hum
%
Delta-T
°C
Wind Press
QNH
hPa
Press
MSL
hPa
Rain since
9am
mm
Dir  Spd
km/h
Gust
km/h
Spd
kts
Gust
kts
25/08:30pm 11.1 7.5 8.5 84 1.3 NW 17 22 9 12 1010.3 1010.3 2.8
25/08:00pm 11.5 7.7 9.2 86 1.2 NW 19 26 10 14 1010.4 1010.4 2.8
25/07:30pm 11.6 8.3 9.7 88 1.0 NW 17 24 9 13 1010.6 1010.6 2.8
25/07:00pm 11.5 8.4 10.4 93 0.6 NW 17 22 9 12 1010.5 1010.5 2.8
25/06:30pm 11.7 8.4 10.9 95 0.4 NW 19 26 10 14 1010.5 1010.5 2.8
25/06:00pm 12.7 6.5 9.5 81 1.6 NW 32 65 17 35 1010.7 1010.7 2.0
25/05:58pm 13.0 7.6 9.4 79 1.8 NW 28 61 15 33 1010.7 1010.7 1.8
25/05:30pm 13.9 9.9 9.1 73 2.4 NW 20 32 11 17 1009.9 1009.9 0.8
25/05:00pm 14.3 10.4 8.7 69 2.8 NW 19 26 10 14 1009.5 1009.5 0.0
25/04:30pm 15.6 10.0 8.8 64 3.5 NW 28 35 15 19 1009.8 1009.8 0.0
25/04:00pm 16.2 12.3 9.6 65 3.4 WNW 20 33 11 18 1009.9 1009.9 0.0
25/03:30pm 16.7 11.7 9.6 63 3.7 NW 26 41 14 22 1009.7 1009.7 0.0
25/03:00pm 16.8 10.8 8.8 59 4.1 NW 30 43 16 23 1009.6 1009.6 0.0
25/02:30pm 17.1 10.3 9.3 60 4.1 NW 35 48 19 26 1009.8 1009.8 0.0
25/02:12pm 17.2 10.3 8.9 58 4.3 NW 35 57 19 31 1009.7 1009.7 0.0
25/02:00pm 17.2 9.8 8.4 56 4.5 NW 37 54 20 29 1009.6 1009.6 0.0
25/01:30pm 17.0 9.6 8.4 57 4.4 NW 37 52 20 28 1009.8 1009.8 0.0
25/01:06pm 16.8 9.1 8.8 59 4.1 NW 39 59 21 32 1010.4 1010.4 0.0
25/01:00pm 16.1 8.0 8.8 62 3.7 NW 41 56 22 30 1010.5 1010.5 0.0
25/12:30pm 16.0 8.6 8.2 60 3.9 NW 37 52 20 28 1011.1 1011.1 0.0
25/12:00pm 16.4 8.4 9.1 62 3.8 NW 41 59 22 32 1012.0 1012.0 0.0
25/11:30am 16.9 9.5 8.3 57 4.4 NW 37 57 20 31 1012.6 1012.6 0.0
25/11:09am 16.8 10.3 8.8 59 4.1 NW 33 52 18 28 1013.0 1013.0 0.0
25/11:00am 16.3 9.8 8.8 61 3.8 NW 33 48 18 26 1013.3 1013.3 0.0
25/10:30am 15.5 8.9 8.5 63 3.5 NW 33 46 18 25 1013.6 1013.6 0.0
25/10:00am 14.9 8.3 8.4 65 3.3 NW 33 46 18 25 1013.8 1013.8 0.0
25/09:30am 14.3 8.1 8.0 66 3.1 NW 30 46 16 25 1014.0 1014.0 0.0
25/09:25am 14.2 8.4 7.9 66 3.1 NW 28 46 15 25 1013.9 1013.9 0.0
25/09:00am 13.6 7.7 7.6 67 2.9 NW 28 41 15 22 1014.0 1014.0 0.4
25/08:47am 13.5 7.6 7.7 68 2.9 NW 28 48 15 26 1014.0 1014.0 0.4
25/08:30am 13.0 7.5 7.5 69 2.7 NW 26 39 14 21 1014.1 1014.1 0.4
25/08:00am 12.4 6.5 7.3 71 2.5 NW 28 44 15 24 1014.3 1014.3 0.4
25/07:30am 12.1 6.9 7.2 72 2.4 NW 24 35 13 19 1014.3 1014.3 0.4
25/07:00am 11.8 5.9 7.3 74 2.2 NNW 28 39 15 21 1014.2 1014.2 0.4
25/06:39am 11.8 5.9 7.5 75 2.1 NW 28 46 15 25 1014.1 1014.1 0.4
25/06:30am 11.7 5.4 7.6 76 2.0 NW 30 39 16 21 1014.3 1014.3 0.4
25/06:00am 11.2 5.7 7.5 78 1.8 NW 26 37 14 20 1014.4 1014.4 0.4
25/05:30am 10.9 5.8 7.8 81 1.5 NW 24 37 13 20 1014.7 1014.7 0.4
25/05:00am 10.7 6.0 7.8 82 1.4 NW 22 32 12 17 1014.7 1014.7 0.4
25/04:30am 10.3 6.1 8.1 86 1.1 NW 20 30 11 16 1015.2 1015.2 0.4
25/04:00am 9.9 5.8 7.8 87 1.0 NW 19 24 10 13 1015.3 1015.3 0.4
25/03:30am 9.8 6.1 8.1 89 0.8 NW 17 26 9 14 1015.8 1015.8 0.4
25/03:00am 9.3 5.9 7.7 90 0.8 NW 15 22 8 12 1016.2 1016.2 0.4
25/02:30am 8.8 6.1 7.3 90 0.7 NW 11 17 6 9 1016.5 1016.5 0.4
25/02:00am 8.8 5.7 7.3 90 0.7 NW 13 20 7 11 1016.8 1016.8 0.4
25/01:30am 9.1 5.6 7.4 89 0.8 NW 15 22 8 12 1016.8 1016.8 0.4
25/01:00am 8.9 5.4 7.4 90 0.7 NW 15 20 8 11 1016.8 1016.8 0.4
25/12:30am 8.9 6.2 7.4 90 0.7 NW 11 15 6 8 1017.0 1017.0 0.4
25/12:00am 9.3 6.3 7.6 89 0.8 NW 13 19 7 10 1017.2 1017.2 0.4
 
Date/Time
EST
Temp
°C
App
Temp
°C
Dew
Point
°C
Rel
Hum
%
Delta-T
°C
Wind Press
QNH
hPa
Press
MSL
hPa
Rain since
9am
mm
Dir  Spd
km/h
Gust
km/h
Spd
kts
Gust
kts
24/11:30pm 9.5 6.5 7.8 89 0.8 NW 13 19 7 10 1017.6 1017.6 0.4
24/11:00pm 9.6 6.3 7.9 89 0.8 NW 15 20 8 11 1017.8 1017.8 0.4
24/10:30pm 9.3 6.3 7.7 90 0.8 NW 13 15 7 8 1017.8 1017.8 0.4
24/10:00pm 10.0 7.2 8.6 91 0.7 NW 13 17 7 9 1017.9 1017.9 0.4
24/09:30pm 9.2 6.7 8.1 93 0.5 NW 11 13 6 7 1017.9 1017.9 0.4
24/09:00pm 8.2 6.2 7.0 92 0.6 WNW 7 9 4 5 1017.9 1017.9 0.4
24/08:30pm 8.7 6.4 7.5 92 0.6 WNW 9 11 5 6 1017.7 1017.7 0.4
24/08:00pm 8.6 6.6 7.1 90 0.7 NW 7 9 4 5 1017.6 1017.6 0.4
24/07:30pm 9.0 7.1 7.5 90 0.7 NW 7 11 4 6 1017.7 1017.7 0.4
24/07:00pm 9.1 6.8 7.5 90 0.8 NW 9 11 5 6 1017.6 1017.6 0.4
24/06:30pm 8.1 5.9 6.4 89 0.8 NW 7 9 4 5 1017.5 1017.5 0.4
24/06:00pm 9.4 6.3 7.3 87 1.0 WNW 13 15 7 8 1017.4 1017.4 0.4
24/05:30pm 10.4 7.1 8.0 85 1.2 WNW 15 22 8 12 1017.2 1017.2 0.4
24/05:00pm 11.3 7.7 8.2 81 1.5 WNW 17 26 9 14 1017.0 1017.0 0.4
24/04:30pm 12.2 8.0 8.3 77 1.9 WNW 20 30 11 16 1016.9 1016.9 0.4
24/04:00pm 12.8 8.4 8.9 77 2.0 WNW 22 32 12 17 1016.9 1016.9 0.4
24/03:30pm 13.0 7.8 8.9 76 2.1 WNW 26 37 14 20 1016.8 1016.8 0.4
24/03:00pm 12.4 7.2 8.7 78 1.8 WNW 26 37 14 20 1016.9 1016.9 0.4
24/02:30pm 12.2 6.1 8.3 77 1.9 WNW 30 39 16 21 1017.0 1017.0 0.4
24/02:00pm 12.5 5.9 8.4 76 2.0 WNW 33 43 18 23 1017.1 1017.1 0.4
24/01:30pm 13.4 8.0 9.6 78 1.9 WNW 28 39 15 21 1017.3 1017.3 0.4
24/01:00pm 12.0 7.2 8.7 80 1.6 WNW 24 33 13 18 1017.3 1017.3 0.4
24/12:30pm 12.7 6.9 9.5 81 1.6 WNW 30 39 16 21 1017.4 1017.4 0.4
24/12:00pm 12.9 7.7 10.1 83 1.4 WNW 28 35 15 19 1017.9 1017.9 0.4
24/11:30am 11.1 6.9 9.7 91 0.7 WNW 22 33 12 18 1018.4 1018.4 0.4
24/11:00am 10.4 5.8 9.8 96 0.3 NW 24 32 13 17 1018.7 1018.7 0.4
24/10:30am 10.5 6.8 10.0 97 0.3 NW 20 26 11 14 1018.6 1018.6 0.4
24/10:00am 9.7 6.7 9.4 98 0.1 NW 15 22 8 12 1018.7 1018.7 0.4
24/09:30am 9.2 5.8 9.1 99 0.0 NW 17 22 9 12 1018.5 1018.5 0.4
24/09:00am 9.2 5.8 9.1 99 0.0 NW 17 24 9 13 1018.4 1018.4 3.8
24/08:30am 8.8 5.3 8.7 99 0.0 NW 17 22 9 12 1018.0 1018.0 3.8
24/08:00am 8.8 6.0 8.5 98 0.1 WNW 13 19 7 10 1017.9 1017.9 3.4
24/07:30am 8.4 5.9 8.1 98 0.1 WNW 11 15 6 8 1017.6 1017.6 1.8
24/07:00am 8.8 6.0 8.4 97 0.2 NW 13 17 7 9 1017.3 1017.3 1.8
24/06:30am 8.9 5.3 8.5 97 0.2 NW 17 22 9 12 1017.0 1017.0 1.8
24/06:00am 8.6 5.6 7.8 95 0.4 WNW 13 17 7 9 1016.5 1016.5 1.8
24/05:30am 8.7 6.1 7.8 94 0.4 WNW 11 17 6 9 1016.3 1016.3 1.8
24/05:00am 9.0 6.4 7.9 93 0.5 WNW 11 15 6 8 1015.9 1015.9 1.8
24/04:30am 8.9 6.2 7.4 90 0.7 WNW 11 15 6 8 1015.7 1015.7 1.8
24/04:00am 9.2 6.4 6.8 85 1.1 WNW 11 15 6 8 1015.5 1015.5 1.8
24/03:30am 10.2 6.2 6.5 78 1.7 WSW 17 24 9 13 1015.2 1015.2 1.8
24/03:00am 9.6 6.1 7.0 84 1.2 W 15 20 8 11 1015.3 1015.3 1.8
24/02:30am 9.9 5.8 6.4 79 1.6 WSW 17 22 9 12 1015.2 1015.2 1.8
24/02:00am 9.8 5.3 6.3 79 1.6 WSW 19 26 10 14 1015.1 1015.1 1.8
24/01:30am 9.9 6.0 7.0 82 1.4 W 17 22 9 12 1014.9 1014.9 1.8
24/01:00am 10.1 6.2 7.3 83 1.3 W 17 24 9 13 1014.8 1014.8 1.8
24/12:30am 10.4 5.6 7.3 81 1.5 WSW 22 30 12 16 1014.8 1014.8 1.8
24/12:00am 10.3 6.7 8.2 87 1.0 WSW 17 24 9 13 1014.5 1014.5 1.8
 
Date/Time
EST
Temp
°C
App
Temp
°C
Dew
Point
°C
Rel
Hum
%
Delta-T
°C
Wind Press
QNH
hPa
Press
MSL
hPa
Rain since
9am
mm
Dir  Spd
km/h
Gust
km/h
Spd
kts
Gust
kts
23/11:30pm 10.4 6.1 8.0 85 1.2 WSW 20 26 11 14 1014.3 1014.3 1.8
23/11:00pm 10.4 5.7 7.8 84 1.3 WSW 22 30 12 16 1014.2 1014.2 1.8
23/10:30pm 10.1 5.5 8.2 88 0.9 WSW 22 28 12 15 1014.0 1014.0 1.8
23/10:00pm 9.4 5.9 8.6 95 0.4 W 17 20 9 11 1013.8 1013.8 1.8
23/09:30pm 9.1 6.2 8.2 94 0.4 WNW 13 17 7 9 1013.4 1013.4 1.8
23/09:00pm 9.8 6.7 8.7 93 0.5 W 15 20 8 11 1013.1 1013.1 1.8
23/08:30pm 9.9 5.5 8.8 93 0.5 W 22 28 12 15 1012.6 1012.6 1.8
23/08:00pm 9.8 5.8 9.0 95 0.4 W 20 28 11 15 1012.3 1012.3 1.6
23/07:30pm 9.8 6.4 9.0 95 0.4 WNW 17 24 9 13 1011.9 1011.9 0.6
23/07:00pm 9.5 5.6 8.7 95 0.4 WNW 19 20 10 11 1011.4 1011.4 0.6
23/06:30pm 9.9 6.5 9.0 94 0.4 WNW 17 22 9 12 1011.1 1011.1 0.6
23/06:00pm 10.1 6.6 8.9 92 0.6 WNW 17 24 9 13 1010.9 1010.9 0.6
23/05:30pm 10.3 6.3 8.9 91 0.7 WNW 20 30 11 16 1010.6 1010.6 0.6
23/05:00pm 10.7 6.8 9.5 92 0.6 NW 20 28 11 15 1010.3 1010.3 0.6
23/04:30pm 10.7 6.1 9.5 92 0.6 WNW 24 32 13 17 1009.9 1009.9 0.6
23/04:05pm 11.1 5.7 9.4 89 0.9 NW 28 46 15 25 1009.5 1009.5 0.6
23/04:00pm 11.2 5.7 9.3 88 1.0 WNW 28 41 15 22 1009.6 1009.6 0.4
23/03:30pm 12.5 6.0 9.0 79 1.8 WNW 33 44 18 24 1009.0 1009.0 0.0
23/03:00pm 12.3 5.8 9.1 81 1.6 NW 33 50 18 27 1008.8 1008.8 0.0
23/02:30pm 12.6 5.7 8.9 78 1.9 NW 35 59 19 32 1008.2 1008.2 0.0
23/02:28pm 12.6 5.7 8.9 78 1.9 NW 35 59 19 32 1008.2 1008.2 0.0
23/02:00pm 13.1 6.2 9.0 76 2.1 NW 35 48 19 26 1008.4 1008.4 0.0
23/01:30pm 13.5 5.1 8.8 73 2.4 WNW 43 56 23 30 1008.5 1008.5 0.0
23/01:12pm 13.4 5.3 8.5 72 2.4 WNW 41 59 22 32 1008.4 1008.4 0.0
23/01:00pm 13.4 6.0 8.5 72 2.5 WNW 37 52 20 28 1008.6 1008.6 0.0
23/12:30pm 13.7 6.3 8.3 70 2.7 WNW 37 48 20 26 1008.9 1008.9 0.0
23/12:00pm 14.2 6.0 8.4 68 2.9 WNW 41 56 22 30 1009.1 1009.1 0.0
23/11:44am 14.0 6.6 8.4 69 2.8 NW 37 56 20 30 1009.3 1009.3 0.0
23/11:30am 13.6 5.8 8.2 70 2.7 NW 39 56 21 30 1009.4 1009.4 0.0
23/11:00am 13.0 5.2 8.1 72 2.4 WNW 39 57 21 31 1009.5 1009.5 0.0
23/10:45am 13.4 5.5 7.8 69 2.8 NW 39 57 21 31 1009.4 1009.4 0.0
23/10:30am 13.1 5.6 7.8 70 2.6 NW 37 56 20 30 1009.6 1009.6 0.0
23/10:22am 12.9 6.1 7.8 71 2.5 NW 33 56 18 30 1009.5 1009.5 0.0
23/10:00am 12.4 4.5 7.7 73 2.3 NW 39 54 21 29 1009.5 1009.5 0.0
23/09:38am 12.3 5.9 7.0 70 2.5 NW 30 48 16 26 1009.7 1009.7 0.0
23/09:30am 12.1 5.1 6.8 70 2.5 NW 33 50 18 27 1009.7 1009.7 0.0
23/09:00am 11.9 4.8 5.5 65 3.0 NW 32 44 17 24 1009.4 1009.4 0.0
23/08:30am 11.3 4.5 5.0 65 2.9 NW 30 41 16 22 1009.1 1009.1 0.0
23/08:00am 10.7 4.1 4.2 64 2.9 NW 28 39 15 21 1008.9 1008.9 0.0
23/07:30am 10.7 4.1 4.2 64 2.9 NW 28 37 15 20 1009.0 1009.0 0.0
23/07:00am 11.5 3.5 4.0 60 3.4 NW 35 50 19 27 1008.5 1008.5 0.0
23/06:30am 11.8 3.4 3.6 57 3.6 NW 37 50 20 27 1008.2 1008.2 0.0
23/06:00am 11.4 3.0 3.9 60 3.3 NW 37 52 20 28 1008.2 1008.2 0.0
23/05:30am 12.1 4.4 3.3 55 3.9 NW 33 46 18 25 1008.1 1008.1 0.0
23/05:00am 12.5 4.2 2.1 49 4.5 NW 35 52 19 28 1007.7 1007.7 0.0
23/04:30am 12.9 3.4 1.9 47 4.7 NW 41 54 22 29 1007.4 1007.4 0.0
23/04:06am 13.5 3.4 1.5 44 5.2 NW 44 65 24 35 1007.2 1007.2 0.0
23/04:00am 13.3 3.8 1.6 45 5.1 NW 41 54 22 29 1007.3 1007.3 0.0
23/03:30am 13.1 3.6 1.8 46 4.9 NW 41 65 22 35 1007.5 1007.5 0.0
23/03:18am 13.2 3.1 1.8 46 4.9 NW 44 69 24 37 1007.4 1007.4 0.0
23/03:00am 12.7 3.2 2.0 48 4.6 NW 41 57 22 31 1007.9 1007.9 0.0
23/02:39am 12.7 4.0 2.0 48 4.6 NW 37 59 20 32 1008.2 1008.2 0.0
23/02:30am 12.4 3.3 2.0 49 4.5 NW 39 54 21 29 1008.4 1008.4 0.0
23/02:08am 12.1 5.2 2.3 51 4.2 NNW 28 50 15 27 1008.9 1008.9 0.0
23/02:00am 11.6 5.4 2.4 53 4.0 NNW 24 37 13 20 1009.2 1009.2 0.0
23/01:30am 10.8 6.4 2.6 57 3.5 NNW 15 33 8 18 1010.1 1010.1 0.0
23/01:00am 10.8 6.4 2.9 58 3.4 NNW 15 24 8 13 1010.4 1010.4 0.0
23/12:30am 11.6 6.9 2.9 55 3.8 NNW 17 33 9 18 1010.7 1010.7 0.0
23/12:00am 11.3 5.2 2.9 56 3.7 NNW 24 39 13 21 1010.9 1010.9 0.0
 
Date/Time
EST
Temp
°C
App
Temp
°C
Dew
Point
°C
Rel
Hum
%
Delta-T
°C
Wind Press
QNH
hPa
Press
MSL
hPa
Rain since
9am
mm
Dir  Spd
km/h
Gust
km/h
Spd
kts
Gust
kts
22/11:30pm 10.9 5.2 3.0 58 3.4 NNW 22 37 12 20 1011.2 1011.2 0.0
22/11:00pm 11.3 5.3 3.1 57 3.6 NNW 24 41 13 22 1011.5 1011.5 0.0
22/10:30pm 11.2 4.4 3.0 57 3.6 NW 28 37 15 20 1011.8 1011.8 0.0
22/10:00pm 10.5 4.2 3.5 62 3.1 NW 26 39 14 21 1011.8 1011.8 0.0
22/09:30pm 10.6 4.3 3.6 62 3.1 NW 26 35 14 19 1011.9 1011.9 0.0
22/09:00pm 9.5 5.0 4.3 70 2.3 WNW 17 26 9 14 1012.0 1012.0 0.0

Other Formats:

Comma delimited format used in spreadsheet applications
http://www.bom.gov.au/fwo/IDV60801/IDV60801.94911.axf

JavaScript Object Notation format (JSON) in row-major order
http://www.bom.gov.au/fwo/IDV60801/IDV60801.94911.json